Time,TemperatureF,DewpointF,PressureIn,WindDirection,WindDirectionDegrees,WindSpeedMPH,WindSpeedGustMPH,Humidity,HourlyPrecipIn,Conditions,Clouds,dailyrainin,SolarRadiationWatts/m^2,SoftwareType,DateUTC
2013-11-17 00:02:00,22.0,18.0,-100.00,NW,317,7.0,25.0,85,0.00,,,0.12,0.000000,,2013-11-17 07:02:00,
2013-11-17 00:42:00,21.0,17.0,-100.00,North,352,8.0,30.0,83,0.00,,,0.12,0.000000,,2013-11-17 07:42:00,
2013-11-17 00:53:00,21.0,17.0,-100.00,North,352,8.0,30.0,83,0.00,,,0.12,0.000000,,2013-11-17 07:53:00,
2013-11-17 01:01:00,21.0,17.0,-100.00,North,352,8.0,30.0,83,0.00,,,0.12,0.000000,,2013-11-17 08:01:00,
2013-11-17 01:42:00,22.0,17.0,-100.00,NNW,339,5.0,16.0,81,0.00,,,0.12,0.000000,,2013-11-17 08:42:00,
2013-11-17 01:52:00,22.0,17.0,-100.00,NNW,339,5.0,16.0,81,0.00,,,0.12,0.000000,,2013-11-17 08:52:00,
2013-11-17 02:03:00,22.0,17.0,-100.00,NNW,339,5.0,16.0,81,0.00,,,0.12,0.000000,,2013-11-17 09:03:00,
2013-11-17 02:43:00,22.0,15.0,-100.00,NW,320,11.0,25.0,74,0.00,,,0.12,0.000000,,2013-11-17 09:43:00,
2013-11-17 02:54:00,22.0,15.0,-100.00,NW,320,11.0,25.0,74,0.00,,,0.12,0.000000,,2013-11-17 09:54:00,
2013-11-17 03:03:00,22.0,15.0,-100.00,NW,320,11.0,25.0,74,0.00,,,0.12,0.000000,,2013-11-17 10:03:00,
2013-11-17 03:42:00,22.0,14.0,-100.00,NW,309,8.0,27.0,72,0.00,,,0.12,0.000000,,2013-11-17 10:42:00,
2013-11-17 03:53:00,22.0,14.0,-100.00,NW,309,8.0,27.0,72,0.00,,,0.12,0.000000,,2013-11-17 10:53:00,
2013-11-17 04:02:00,22.0,14.0,-100.00,NW,309,8.0,27.0,72,0.00,,,0.12,0.000000,,2013-11-17 11:02:00,
2013-11-17 04:43:00,21.0,18.0,-100.00,NW,316,3.0,19.0,88,0.00,,,0.12,0.000000,,2013-11-17 11:43:00,
2013-11-17 04:52:00,21.0,18.0,-100.00,NW,316,3.0,19.0,88,0.00,,,0.12,0.000000,,2013-11-17 11:52:00,
2013-11-17 05:02:00,21.0,18.0,-100.00,NW,316,3.0,19.0,88,0.00,,,0.12,0.000000,,2013-11-17 12:02:00,
2013-11-17 05:42:00,21.0,16.0,-100.00,WNW,291,9.0,25.0,80,0.00,,,0.12,0.000000,,2013-11-17 12:42:00,
2013-11-17 05:52:00,21.0,16.0,-100.00,WNW,291,9.0,25.0,80,0.00,,,0.12,0.000000,,2013-11-17 12:52:00,
2013-11-17 06:01:00,21.0,16.0,-100.00,WNW,291,9.0,25.0,80,0.00,,,0.12,0.000000,,2013-11-17 13:01:00,
2013-11-17 06:42:00,21.0,12.0,-100.00,WNW,302,13.0,37.0,67,0.00,,,-99.99,0.000000,,2013-11-17 13:42:00,
2013-11-17 06:52:00,21.0,12.0,-100.00,WNW,302,13.0,37.0,67,0.00,,,-99.99,0.000000,,2013-11-17 13:52:00,
2013-11-17 07:02:00,21.0,12.0,-100.00,WNW,302,13.0,37.0,67,0.00,,,-99.99,0.000000,,2013-11-17 14:02:00,
2013-11-17 07:42:00,23.0,12.0,-100.00,WNW,300,11.0,27.0,62,0.00,,,0.12,2.000000,,2013-11-17 14:42:00,
2013-11-17 07:52:00,23.0,12.0,-100.00,WNW,300,11.0,27.0,62,0.00,,,0.12,2.000000,,2013-11-17 14:52:00,
2013-11-17 08:02:00,23.0,12.0,-100.00,WNW,300,11.0,27.0,62,0.00,,,0.12,2.000000,,2013-11-17 15:02:00,
2013-11-17 08:43:00,25.0,11.0,-100.00,NW,306,9.0,29.0,55,0.00,,,0.12,65.000000,,2013-11-17 15:43:00,
2013-11-17 08:54:00,25.0,11.0,-100.00,NW,306,9.0,29.0,55,0.00,,,0.12,65.000000,,2013-11-17 15:54:00,
2013-11-17 09:03:00,25.0,11.0,-100.00,NW,306,9.0,29.0,55,0.00,,,0.12,65.000000,,2013-11-17 16:03:00,
2013-11-17 09:42:00,29.0,11.0,-100.00,SE,146,6.0,21.0,46,0.00,,,0.12,331.000000,,2013-11-17 16:42:00,
2013-11-17 09:53:00,29.0,11.0,-100.00,SE,146,6.0,21.0,46,0.00,,,0.12,331.000000,,2013-11-17 16:53:00,
2013-11-17 10:03:00,29.0,11.0,-100.00,SE,146,6.0,21.0,46,0.00,,,0.12,331.000000,,2013-11-17 17:03:00,
2013-11-17 10:43:00,29.0,11.0,-100.00,ENE,72,6.0,16.0,47,0.04,,,0.13,354.000000,,2013-11-17 17:43:00,
2013-11-17 10:52:00,29.0,11.0,-100.00,ENE,72,6.0,16.0,47,0.04,,,0.13,354.000000,,2013-11-17 17:52:00,
2013-11-17 11:03:00,29.0,11.0,-100.00,ENE,72,6.0,16.0,47,0.04,,,0.13,354.000000,,2013-11-17 18:03:00,
2013-11-17 11:42:00,31.0,13.0,-100.00,NE,37,11.0,23.0,47,0.04,,,0.11,494.000000,,2013-11-17 18:42:00,
2013-11-17 11:52:00,31.0,13.0,-100.00,NE,37,11.0,23.0,47,0.04,,,0.11,494.000000,,2013-11-17 18:52:00,
2013-11-17 12:02:00,31.0,13.0,-100.00,NE,37,11.0,23.0,47,0.04,,,0.11,494.000000,,2013-11-17 19:02:00,
2013-11-17 12:42:00,35.0,14.0,-100.00,NNE,27,8.0,20.0,42,0.02,,,0.11,680.000000,,2013-11-17 19:42:00,
2013-11-17 12:52:00,35.0,14.0,-100.00,NNE,27,8.0,20.0,42,0.02,,,0.11,680.000000,,2013-11-17 19:52:00,
2013-11-17 13:02:00,35.0,14.0,-100.00,NNE,27,8.0,20.0,42,0.02,,,0.11,680.000000,,2013-11-17 20:02:00,
2013-11-17 13:43:00,35.0,14.0,-100.00,North,4,8.0,19.0,41,0.02,,,0.13,665.000000,,2013-11-17 20:43:00,
2013-11-17 13:52:00,35.0,14.0,-100.00,North,4,8.0,19.0,41,0.02,,,0.13,665.000000,,2013-11-17 20:52:00,
2013-11-17 14:02:00,35.0,14.0,-100.00,North,4,8.0,19.0,41,0.02,,,0.13,665.000000,,2013-11-17 21:02:00,
2013-11-17 14:44:00,35.0,14.0,-100.00,North,349,9.0,15.0,42,0.02,,,0.14,579.000000,,2013-11-17 21:44:00,
2013-11-17 14:55:00,35.0,14.0,-100.00,North,349,9.0,15.0,42,0.02,,,0.14,579.000000,,2013-11-17 21:55:00,
2013-11-17 15:04:00,35.0,14.0,-100.00,North,349,9.0,15.0,42,0.02,,,0.14,579.000000,,2013-11-17 22:04:00,
2013-11-17 15:43:00,34.0,14.0,-100.00,North,2,9.0,18.0,44,0.00,,,0.14,430.000000,,2013-11-17 22:43:00,
2013-11-17 15:53:00,34.0,14.0,-100.00,North,2,9.0,18.0,44,0.00,,,0.14,430.000000,,2013-11-17 22:53:00,
2013-11-17 16:03:00,34.0,14.0,-100.00,North,2,9.0,18.0,44,0.00,,,0.14,430.000000,,2013-11-17 23:03:00,
2013-11-17 16:42:00,32.0,14.0,-100.00,WNW,303,5.0,19.0,47,0.00,,,0.14,229.000000,,2013-11-17 23:42:00,
2013-11-17 16:53:00,32.0,14.0,-100.00,WNW,303,5.0,19.0,47,0.00,,,0.14,229.000000,,2013-11-17 23:53:00,
2013-11-17 17:02:00,32.0,14.0,-100.00,WNW,303,5.0,19.0,47,0.00,,,0.14,229.000000,,2013-11-18 00:02:00,
2013-11-17 17:42:00,28.0,15.0,-100.00,North,350,6.0,16.0,57,0.00,,,0.14,10.000000,,2013-11-18 00:42:00,
2013-11-17 17:52:00,28.0,15.0,-100.00,North,350,6.0,16.0,57,0.00,,,0.14,10.000000,,2013-11-18 00:52:00,
2013-11-17 18:01:00,28.0,15.0,-100.00,North,350,6.0,16.0,57,0.00,,,0.14,10.000000,,2013-11-18 01:01:00,
2013-11-17 18:42:00,28.0,16.0,-100.00,NNE,20,7.0,14.0,59,0.00,,,0.14,0.000000,,2013-11-18 01:42:00,
2013-11-17 18:52:00,28.0,16.0,-100.00,NNE,20,7.0,14.0,59,0.00,,,0.14,0.000000,,2013-11-18 01:52:00,
2013-11-17 19:01:00,28.0,16.0,-100.00,NNE,20,7.0,14.0,59,0.00,,,0.14,0.000000,,2013-11-18 02:01:00,
2013-11-17 19:42:00,27.0,15.0,-100.00,North,0,6.0,16.0,60,0.00,,,0.14,0.000000,,2013-11-18 02:42:00,
2013-11-17 19:52:00,27.0,15.0,-100.00,North,0,6.0,16.0,60,0.00,,,0.14,0.000000,,2013-11-18 02:52:00,
2013-11-17 20:02:00,27.0,15.0,-100.00,North,0,6.0,16.0,60,0.00,,,0.14,0.000000,,2013-11-18 03:02:00,
2013-11-17 20:44:00,23.0,13.0,-100.00,WSW,237,4.0,10.0,66,0.00,,,0.14,0.000000,,2013-11-18 03:44:00,
2013-11-17 20:54:00,23.0,13.0,-100.00,WSW,237,4.0,10.0,66,0.00,,,0.14,0.000000,,2013-11-18 03:54:00,
2013-11-17 21:03:00,23.0,13.0,-100.00,WSW,237,4.0,10.0,66,0.00,,,0.14,0.000000,,2013-11-18 04:03:00,
2013-11-17 21:42:00,21.0,12.0,-100.00,WSW,254,1.0,6.0,69,0.00,,,0.14,0.000000,,2013-11-18 04:42:00,
2013-11-17 21:52:00,21.0,12.0,-100.00,WSW,254,1.0,6.0,69,0.00,,,0.14,0.000000,,2013-11-18 04:52:00,
2013-11-17 22:02:00,21.0,12.0,-100.00,WSW,254,1.0,6.0,69,0.00,,,0.14,0.000000,,2013-11-18 05:02:00,
2013-11-17 22:43:00,24.0,11.0,-100.00,North,6,8.0,14.0,58,0.00,,,0.14,0.000000,,2013-11-18 05:43:00,
2013-11-17 22:53:00,24.0,11.0,-100.00,North,6,8.0,14.0,58,0.00,,,0.14,0.000000,,2013-11-18 05:53:00,
2013-11-17 23:02:00,24.0,11.0,-100.00,North,6,8.0,14.0,58,0.00,,,0.14,0.000000,,2013-11-18 06:02:00,
2013-11-17 23:42:00,21.0,11.0,-100.00,NNW,339,7.0,15.0,64,0.00,,,0.14,0.000000,,2013-11-18 06:42:00,
2013-11-17 23:52:00,21.0,11.0,-100.00,NNW,339,7.0,15.0,64,0.00,,,0.14,0.000000,,2013-11-18 06:52:00,